Time;durP1;ratioP1;P1;durP2;ratioP2;P2;SDS_P1;SDS_P2;PMS_P1;PMS_P2;Temp;Humidity;BMP_temperature;BMP_pressure;BME280_temperature;BME280_humidity;BME280_pressure;Samples;Min_cycle;Max_cycle;Signal;HPM_P1;HPM_P2
2023/02/09 00:05:08;;;;;;;60.70;37.17;;;;;;;;;;5090597;28;20246;-76
2023/02/09 00:07:36;;;;;;;46.97;28.00;;;;;;;;;;5090342;28;20228;-76
2023/02/09 00:10:04;;;;;;;49.77;30.00;;;;;;;;;;5091347;28;20684;-76
2023/02/09 00:15:16;;;;;;;43.73;27.33;;;;;;;;;;5090742;28;20706;-76
2023/02/09 00:17:43;;;;;;;46.43;27.80;;;;;;;;;;5090810;28;20239;-76
2023/02/09 00:20:12;;;;;;;52.57;30.03;;;;;;;;;;5091808;28;20551;-76
2023/02/09 00:22:39;;;;;;;51.40;30.83;;;;;;;;;;5094485;28;20300;-77
2023/02/09 00:25:07;;;;;;;46.40;28.07;;;;;;;;;;5094652;28;20226;-76
2023/02/09 00:27:35;;;;;;;46.23;28.10;;;;;;;;;;5094186;28;20333;-76
2023/02/09 00:30:02;;;;;;;43.10;26.17;;;;;;;;;;5094576;28;20203;-76
2023/02/09 00:32:29;;;;;;;43.60;26.63;;;;;;;;;;5094336;28;20286;-77
2023/02/09 00:34:56;;;;;;;43.30;25.30;;;;;;;;;;5094157;28;20802;-77
2023/02/09 00:37:25;;;;;;;45.40;26.87;;;;;;;;;;5094308;28;20233;-77
2023/02/09 00:39:52;;;;;;;46.40;27.47;;;;;;;;;;5094304;28;20297;-77
2023/02/09 00:42:19;;;;;;;42.30;26.40;;;;;;;;;;5094249;28;20285;-76
2023/02/09 00:44:46;;;;;;;38.00;23.10;;;;;;;;;;5094216;28;20219;-76
2023/02/09 00:47:14;;;;;;;36.20;22.70;;;;;;;;;;5093929;28;20289;-76
2023/02/09 00:49:41;;;;;;;38.43;23.47;;;;;;;;;;5094164;28;20296;-76
2023/02/09 00:52:08;;;;;;;36.50;22.73;;;;;;;;;;5094147;28;20233;-77
2023/02/09 00:54:37;;;;;;;39.50;23.47;;;;;;;;;;5093857;28;20320;-76
2023/02/09 00:57:04;;;;;;;40.80;24.87;;;;;;;;;;5093940;28;20280;-76
2023/02/09 00:59:32;;;;;;;39.90;24.37;;;;;;;;;;5093611;28;20219;-77
2023/02/09 01:02:00;;;;;;;40.83;25.87;;;;;;;;;;5093805;28;20199;-76
2023/02/09 01:04:27;;;;;;;46.13;26.13;;;;;;;;;;5093675;28;20285;-76
2023/02/09 01:06:54;;;;;;;47.20;27.20;;;;;;;;;;5093926;28;20282;-76
2023/02/09 01:09:21;;;;;;;48.90;28.20;;;;;;;;;;5093549;28;20671;-76
2023/02/09 01:11:50;;;;;;;49.70;29.57;;;;;;;;;;5093362;28;20202;-77
2023/02/09 01:14:18;;;;;;;46.73;27.80;;;;;;;;;;5093405;28;20665;-76
2023/02/09 01:16:45;;;;;;;43.83;25.83;;;;;;;;;;5093988;28;20283;-76
2023/02/09 01:19:13;;;;;;;39.47;24.07;;;;;;;;;;5093597;28;20282;-76
2023/02/09 01:21:40;;;;;;;41.87;25.40;;;;;;;;;;5093591;28;20531;-77
2023/02/09 01:24:07;;;;;;;41.03;25.73;;;;;;;;;;5093086;28;20249;-76
2023/02/09 01:26:35;;;;;;;45.97;24.93;;;;;;;;;;5093210;28;20251;-76
2023/02/09 01:29:03;;;;;;;46.17;25.60;;;;;;;;;;5093908;28;20279;-76
2023/02/09 01:31:31;;;;;;;44.47;27.07;;;;;;;;;;5092952;28;20695;-76
2023/02/09 01:34:00;;;;;;;47.60;27.93;;;;;;;;;;5092779;28;20277;-75
2023/02/09 01:36:27;;;;;;;47.77;29.10;;;;;;;;;;5093329;28;20222;-77
2023/02/09 01:38:55;;;;;;;52.83;28.77;;;;;;;;;;5093563;28;20252;-76
2023/02/09 01:41:22;;;;;;;51.73;27.67;;;;;;;;;;5093029;28;20196;-76
2023/02/09 01:43:50;;;;;;;46.30;28.00;;;;;;;;;;5093093;28;20290;-76
2023/02/09 01:46:19;;;;;;;50.47;27.57;;;;;;;;;;5093284;28;20277;-75
2023/02/09 01:48:47;;;;;;;48.37;26.30;;;;;;;;;;5092614;28;20260;-76
2023/02/09 01:51:14;;;;;;;45.40;26.33;;;;;;;;;;5093019;28;20673;-76
2023/02/09 01:53:42;;;;;;;42.70;26.07;;;;;;;;;;5092874;28;20223;-76
2023/02/09 01:56:12;;;;;;;45.63;26.03;;;;;;;;;;5092708;28;20693;-77
2023/02/09 01:58:39;;;;;;;45.40;26.03;;;;;;;;;;5092964;28;20283;-76
2023/02/09 02:01:07;;;;;;;43.07;25.27;;;;;;;;;;5092938;28;20277;-76
2023/02/09 02:03:35;;;;;;;44.60;25.77;;;;;;;;;;5092634;28;20230;-76
2023/02/09 02:06:05;;;;;;;44.97;27.03;;;;;;;;;;5092902;28;20262;-77
2023/02/09 02:08:35;;;;;;;43.43;24.70;;;;;;;;;;5091909;28;20199;-75
2023/02/09 02:11:03;;;;;;;40.67;25.53;;;;;;;;;;5092535;28;20290;-76
2023/02/09 02:13:30;;;;;;;44.90;25.60;;;;;;;;;;5092668;28;20298;-76
2023/02/09 02:16:00;;;;;;;45.77;26.57;;;;;;;;;;5092080;28;20765;-77
2023/02/09 02:18:42;;;;;;;54.50;29.47;;;;;;;;;;5092591;28;20293;-77
2023/02/09 02:21:24;;;;;;;48.57;27.43;;;;;;;;;;5092495;28;20285;-75
2023/02/09 02:23:58;;;;;;;46.37;27.47;;;;;;;;;;5092099;28;20222;-76
2023/02/09 02:26:41;;;;;;;51.33;28.63;;;;;;;;;;5092095;28;20770;-76
2023/02/09 02:29:16;;;;;;;50.77;27.73;;;;;;;;;;5092238;28;20294;-76
2023/02/09 02:32:01;;;;;;;47.23;26.80;;;;;;;;;;5092301;28;20226;-76
2023/02/09 02:34:32;;;;;;;47.17;27.00;;;;;;;;;;5091889;28;20321;-75
2023/02/09 02:37:02;;;;;;;50.83;27.03;;;;;;;;;;5092081;28;20293;-76
2023/02/09 02:39:34;;;;;;;49.50;27.37;;;;;;;;;;5091684;28;20682;-75
2023/02/09 02:44:53;;;;;;;51.47;28.37;;;;;;;;;;5091819;28;20340;-74
2023/02/09 02:47:23;;;;;;;46.10;26.63;;;;;;;;;;5092049;28;20222;-76
2023/02/09 02:49:52;;;;;;;50.03;27.63;;;;;;;;;;5092156;28;20294;-76
2023/02/09 02:52:19;;;;;;;46.97;26.73;;;;;;;;;;5091214;28;20289;-76
2023/02/09 02:54:48;;;;;;;47.10;26.57;;;;;;;;;;5091920;28;20316;-75
2023/02/09 02:57:17;;;;;;;45.13;26.63;;;;;;;;;;5091515;28;20298;-76
2023/02/09 02:59:47;;;;;;;51.30;28.10;;;;;;;;;;5091654;28;20737;-76
2023/02/09 03:02:18;;;;;;;49.97;27.07;;;;;;;;;;5091434;28;20290;-77
2023/02/09 03:04:49;;;;;;;43.07;24.57;;;;;;;;;;5091838;28;20198;-76
2023/02/09 03:07:17;;;;;;;42.53;24.73;;;;;;;;;;5091131;28;20722;-76
2023/02/09 03:09:49;;;;;;;44.50;23.60;;;;;;;;;;5091629;28;20289;-76
2023/02/09 03:12:19;;;;;;;38.23;22.63;;;;;;;;;;5091693;28;20195;-76
2023/02/09 03:14:48;;;;;;;41.87;22.57;;;;;;;;;;5091192;28;20226;-76
2023/02/09 03:17:22;;;;;;;41.27;23.10;;;;;;;;;;5091075;28;20621;-76
2023/02/09 03:19:52;;;;;;;37.63;21.93;;;;;;;;;;5091535;28;20285;-76
2023/02/09 03:22:23;;;;;;;38.77;23.17;;;;;;;;;;5091345;28;20281;-76
2023/02/09 03:24:54;;;;;;;38.47;23.37;;;;;;;;;;5090869;28;20698;-76
2023/02/09 03:27:23;;;;;;;44.13;25.70;;;;;;;;;;5091285;28;20234;-76
2023/02/09 03:29:51;;;;;;;50.73;29.43;;;;;;;;;;5091625;28;20233;-76
2023/02/09 03:32:19;;;;;;;44.77;26.57;;;;;;;;;;5091048;28;20570;-75
2023/02/09 03:34:46;;;;;;;43.93;24.40;;;;;;;;;;5091538;28;20317;-75
2023/02/09 03:37:15;;;;;;;41.93;24.90;;;;;;;;;;5091180;28;20218;-76
2023/02/09 03:39:42;;;;;;;40.33;24.10;;;;;;;;;;5091690;28;20285;-76
2023/02/09 03:42:09;;;;;;;40.87;23.97;;;;;;;;;;5091366;28;20226;-76
2023/02/09 03:44:37;;;;;;;41.30;23.37;;;;;;;;;;5091214;28;20234;-76
2023/02/09 03:47:05;;;;;;;40.03;23.37;;;;;;;;;;5091176;28;20290;-76
2023/02/09 03:49:34;;;;;;;41.87;23.47;;;;;;;;;;5091257;28;20286;-76
2023/02/09 03:52:01;;;;;;;40.53;23.33;;;;;;;;;;5090811;28;20286;-76
2023/02/09 03:54:31;;;;;;;44.00;25.37;;;;;;;;;;5083859;28;20302;-74
2023/02/09 03:56:58;;;;;;;41.13;24.90;;;;;;;;;;5077630;28;20289;-76
2023/02/09 03:59:26;;;;;;;40.87;24.23;;;;;;;;;;5075058;28;20223;-76
2023/02/09 04:01:53;;;;;;;44.30;24.67;;;;;;;;;;5074703;28;20294;-76
2023/02/09 04:04:21;;;;;;;42.97;24.33;;;;;;;;;;5074361;28;20203;-75
2023/02/09 04:06:48;;;;;;;45.83;25.60;;;;;;;;;;5074769;28;20230;-75
2023/02/09 04:09:15;;;;;;;46.20;25.17;;;;;;;;;;5074932;28;20216;-76
2023/02/09 04:11:45;;;;;;;42.40;25.60;;;;;;;;;;5082078;28;20223;-76
2023/02/09 04:14:13;;;;;;;43.90;25.67;;;;;;;;;;5094739;28;20556;-76
2023/02/09 04:16:40;;;;;;;48.07;27.60;;;;;;;;;;5095011;28;20272;-76
2023/02/09 04:19:08;;;;;;;41.43;25.33;;;;;;;;;;5094239;28;20218;-76
2023/02/09 04:21:35;;;;;;;41.20;23.60;;;;;;;;;;5095214;28;20187;-76
2023/02/09 04:24:03;;;;;;;41.80;24.60;;;;;;;;;;5094638;28;20195;-76
2023/02/09 04:26:30;;;;;;;40.70;23.57;;;;;;;;;;5094260;28;20677;-76
2023/02/09 04:28:58;;;;;;;40.20;23.20;;;;;;;;;;5094963;28;20225;-76
2023/02/09 04:31:25;;;;;;;41.30;24.83;;;;;;;;;;5094967;28;20351;-75
2023/02/09 04:33:53;;;;;;;47.17;27.00;;;;;;;;;;5094300;28;20284;-75
2023/02/09 04:36:22;;;;;;;45.80;26.10;;;;;;;;;;5094202;28;20329;-75
2023/02/09 04:38:49;;;;;;;43.90;24.97;;;;;;;;;;5094698;28;20622;-76
2023/02/09 04:41:16;;;;;;;42.93;25.80;;;;;;;;;;5094584;28;20289;-75
2023/02/09 04:43:43;;;;;;;44.20;25.63;;;;;;;;;;5094632;28;20230;-76
2023/02/09 04:46:14;;;;;;;43.43;24.47;;;;;;;;;;5095190;28;20713;-77
2023/02/09 04:48:41;;;;;;;47.37;27.43;;;;;;;;;;5094724;28;20237;-77
2023/02/09 04:51:08;;;;;;;45.83;27.43;;;;;;;;;;5096325;28;20214;-76
2023/02/09 04:53:35;;;;;;;46.07;27.43;;;;;;;;;;5095344;28;20290;-75
2023/02/09 04:56:02;;;;;;;46.97;27.80;;;;;;;;;;5094139;28;20313;-76
2023/02/09 05:01:18;;;;;;;49.33;27.37;;;;;;;;;;5095344;28;20233;-76
2023/02/09 05:03:46;;;;;;;47.37;26.43;;;;;;;;;;5095050;28;20622;-77
2023/02/09 05:06:13;;;;;;;47.77;27.40;;;;;;;;;;5099313;28;20230;-75
2023/02/09 05:08:40;;;;;;;46.67;26.20;;;;;;;;;;5098225;28;20237;-76
2023/02/09 05:11:07;;;;;;;46.73;26.80;;;;;;;;;;5094623;28;20272;-76
2023/02/09 05:13:35;;;;;;;47.50;26.77;;;;;;;;;;5094626;28;20233;-75
2023/02/09 05:16:05;;;;;;;43.87;26.23;;;;;;;;;;5093604;28;20329;-75
2023/02/09 05:18:34;;;;;;;47.20;27.07;;;;;;;;;;5093359;28;20290;-75
2023/02/09 05:21:01;;;;;;;49.43;28.40;;;;;;;;;;5093741;28;20234;-76
2023/02/09 05:23:28;;;;;;;49.37;27.00;;;;;;;;;;5093843;28;20241;-74
2023/02/09 05:25:55;;;;;;;47.60;28.07;;;;;;;;;;5093214;28;20289;-75
2023/02/09 05:28:23;;;;;;;51.73;28.80;;;;;;;;;;5093864;28;20285;-76
2023/02/09 05:30:52;;;;;;;47.77;27.93;;;;;;;;;;5093916;28;20187;-76
2023/02/09 05:33:19;;;;;;;50.37;28.43;;;;;;;;;;5092988;28;20222;-76
2023/02/09 05:35:48;;;;;;;47.63;28.30;;;;;;;;;;5093356;28;20318;-76
2023/02/09 05:38:15;;;;;;;50.60;28.33;;;;;;;;;;5093331;28;20285;-76
2023/02/09 05:40:42;;;;;;;49.13;28.27;;;;;;;;;;5092970;28;20688;-75
2023/02/09 05:43:09;;;;;;;46.17;27.83;;;;;;;;;;5093339;28;20638;-76
2023/02/09 05:45:36;;;;;;;47.03;27.37;;;;;;;;;;5093279;28;20237;-76
2023/02/09 05:48:04;;;;;;;51.77;30.03;;;;;;;;;;5092982;28;20286;-76
2023/02/09 05:50:31;;;;;;;70.40;39.47;;;;;;;;;;5093303;28;20222;-76
2023/02/09 05:53:00;;;;;;;70.20;39.47;;;;;;;;;;5093190;28;20291;-76
2023/02/09 05:55:27;;;;;;;53.03;31.23;;;;;;;;;;5092918;28;20214;-75
2023/02/09 05:57:54;;;;;;;60.80;31.03;;;;;;;;;;5093273;28;20287;-76
2023/02/09 06:00:23;;;;;;;57.10;32.87;;;;;;;;;;5092247;28;20289;-76
2023/02/09 06:02:51;;;;;;;49.80;28.93;;;;;;;;;;5092457;28;20235;-76
2023/02/09 06:05:19;;;;;;;44.53;26.07;;;;;;;;;;5092659;28;20190;-74
2023/02/09 06:07:46;;;;;;;44.90;26.30;;;;;;;;;;5092610;28;20205;-76
2023/02/09 06:10:15;;;;;;;44.37;25.87;;;;;;;;;;5092431;28;20754;-75
2023/02/09 06:12:43;;;;;;;43.23;25.30;;;;;;;;;;5092201;28;20222;-76
2023/02/09 06:15:11;;;;;;;43.87;25.60;;;;;;;;;;5091920;28;20736;-76
2023/02/09 06:17:38;;;;;;;49.63;27.57;;;;;;;;;;5091505;28;20630;-75
2023/02/09 06:20:06;;;;;;;48.00;27.93;;;;;;;;;;5091914;28;20222;-74
2023/02/09 06:22:33;;;;;;;50.57;28.43;;;;;;;;;;5089937;28;20579;-75
2023/02/09 06:25:00;;;;;;;55.13;30.83;;;;;;;;;;5092450;28;20640;-76
2023/02/09 06:27:29;;;;;;;61.13;34.63;;;;;;;;;;5085411;28;20234;-75
2023/02/09 06:29:57;;;;;;;48.50;28.60;;;;;;;;;;5071806;28;20290;-76
2023/02/09 06:32:25;;;;;;;53.43;28.93;;;;;;;;;;5072284;28;20282;-76
2023/02/09 06:34:52;;;;;;;49.70;28.13;;;;;;;;;;5072407;28;20660;-75
2023/02/09 06:37:19;;;;;;;54.93;29.70;;;;;;;;;;5071466;28;20826;-76
2023/02/09 06:39:46;;;;;;;56.93;31.27;;;;;;;;;;5071658;28;20643;-76
2023/02/09 06:42:13;;;;;;;58.37;32.13;;;;;;;;;;5079789;28;20281;-75
2023/02/09 06:44:41;;;;;;;81.17;39.53;;;;;;;;;;5085678;28;20388;-76
2023/02/09 06:47:09;;;;;;;81.10;40.40;;;;;;;;;;5090502;28;20226;-77
2023/02/09 06:49:36;;;;;;;87.60;46.80;;;;;;;;;;5082070;28;20240;-77
2023/02/09 06:52:04;;;;;;;62.77;35.37;;;;;;;;;;5086083;28;20233;-77
2023/02/09 06:54:31;;;;;;;54.63;28.90;;;;;;;;;;5080960;28;20282;-77
2023/02/09 06:56:58;;;;;;;93.10;43.70;;;;;;;;;;5076906;28;20771;-76
2023/02/09 06:59:25;;;;;;;56.53;31.30;;;;;;;;;;5090658;28;20281;-76
2023/02/09 07:01:52;;;;;;;43.93;25.87;;;;;;;;;;5090741;28;20232;-77
2023/02/09 07:04:21;;;;;;;74.93;35.70;;;;;;;;;;5089374;28;20238;-78
2023/02/09 07:06:48;;;;;;;72.53;35.43;;;;;;;;;;5090570;28;20714;-76
2023/02/09 07:09:15;;;;;;;62.57;31.93;;;;;;;;;;5089102;28;20762;-78
2023/02/09 07:11:42;;;;;;;76.27;36.83;;;;;;;;;;5085147;28;20286;-77
2023/02/09 07:14:10;;;;;;;108.63;51.67;;;;;;;;;;5091154;28;20312;-78
2023/02/09 07:16:37;;;;;;;67.20;36.90;;;;;;;;;;5091387;28;20249;-76
2023/02/09 07:19:04;;;;;;;57.40;32.07;;;;;;;;;;5101704;28;20288;-78
2023/02/09 07:21:34;;;;;;;43.50;25.60;;;;;;;;;;5112225;28;20293;-77
2023/02/09 07:24:01;;;;;;;61.77;35.03;;;;;;;;;;5103949;28;20206;-78
2023/02/09 07:26:28;;;;;;;112.57;54.97;;;;;;;;;;5082353;28;20313;-78
2023/02/09 07:28:55;;;;;;;170.93;83.57;;;;;;;;;;5072932;28;20305;-77
2023/02/09 07:31:22;;;;;;;119.07;56.83;;;;;;;;;;5071478;28;20754;-77
2023/02/09 07:33:50;;;;;;;65.13;32.87;;;;;;;;;;5071383;28;20230;-78
2023/02/09 07:36:18;;;;;;;52.93;28.93;;;;;;;;;;5071235;28;20730;-77
2023/02/09 07:38:47;;;;;;;52.30;28.43;;;;;;;;;;5071085;28;20230;-75
2023/02/09 07:41:15;;;;;;;61.70;33.13;;;;;;;;;;5071369;28;20282;-78
2023/02/09 07:43:42;;;;;;;64.90;35.53;;;;;;;;;;5070832;28;20227;-77
2023/02/09 07:46:10;;;;;;;63.50;33.53;;;;;;;;;;5071886;28;20226;-76
2023/02/09 07:48:37;;;;;;;67.80;36.33;;;;;;;;;;5071352;28;20250;-77
2023/02/09 07:51:04;;;;;;;68.53;37.23;;;;;;;;;;5070665;28;20200;-78
2023/02/09 07:53:32;;;;;;;55.73;31.33;;;;;;;;;;5080108;28;20248;-78
2023/02/09 07:56:00;;;;;;;50.07;28.93;;;;;;;;;;5081460;28;20649;-77
2023/02/09 07:58:27;;;;;;;47.73;28.27;;;;;;;;;;5089009;28;20319;-78
2023/02/09 08:00:55;;;;;;;45.10;27.47;;;;;;;;;;5074881;28;20204;-77
2023/02/09 08:03:23;;;;;;;44.40;27.70;;;;;;;;;;5071145;28;20291;-78
2023/02/09 08:05:53;;;;;;;44.97;27.73;;;;;;;;;;5070723;28;20637;-78
2023/02/09 08:08:20;;;;;;;44.00;28.57;;;;;;;;;;5084047;28;20296;-77
2023/02/09 08:10:48;;;;;;;46.80;29.27;;;;;;;;;;5086674;28;20305;-77
2023/02/09 08:13:16;;;;;;;62.27;36.43;;;;;;;;;;5089647;28;20230;-77
2023/02/09 08:15:45;;;;;;;51.57;32.33;;;;;;;;;;5089590;28;20302;-77
2023/02/09 08:18:14;;;;;;;50.07;30.70;;;;;;;;;;5090934;28;20656;-77
2023/02/09 08:20:42;;;;;;;45.50;28.00;;;;;;;;;;5091025;28;20221;-77
2023/02/09 08:23:10;;;;;;;39.93;26.13;;;;;;;;;;5091107;28;20643;-77
2023/02/09 08:25:38;;;;;;;39.13;25.97;;;;;;;;;;5090893;28;20285;-77
2023/02/09 08:28:05;;;;;;;41.00;24.93;;;;;;;;;;5091100;28;20198;-78
2023/02/09 08:30:35;;;;;;;43.93;28.03;;;;;;;;;;5090972;28;20367;-77
2023/02/09 08:33:02;;;;;;;70.20;27.90;;;;;;;;;;5091347;28;20244;-77
2023/02/09 08:35:30;;;;;;;46.27;26.50;;;;;;;;;;5091110;28;20638;-77
2023/02/09 08:38:00;;;;;;;52.83;26.50;;;;;;;;;;5091121;28;20259;-77
2023/02/09 08:40:27;;;;;;;50.10;29.80;;;;;;;;;;5090998;28;20206;-77
2023/02/09 08:42:54;;;;;;;43.97;29.40;;;;;;;;;;5094408;28;20293;-77
2023/02/09 08:45:21;;;;;;;43.77;27.07;;;;;;;;;;5094643;28;20301;-76
2023/02/09 08:47:50;;;;;;;38.27;26.30;;;;;;;;;;5094809;28;20201;-76
2023/02/09 08:50:17;;;;;;;40.37;27.67;;;;;;;;;;5094229;28;20622;-77
2023/02/09 08:52:44;;;;;;;42.37;27.90;;;;;;;;;;5094178;28;20640;-75
2023/02/09 08:55:11;;;;;;;46.77;27.33;;;;;;;;;;5093884;28;20275;-74
2023/02/09 08:57:39;;;;;;;36.67;27.17;;;;;;;;;;5094394;28;20375;-77
2023/02/09 09:00:06;;;;;;;37.30;27.03;;;;;;;;;;5094642;28;20295;-77
2023/02/09 09:02:33;;;;;;;35.37;25.60;;;;;;;;;;5094043;28;20250;-77
2023/02/09 09:05:02;;;;;;;36.77;27.03;;;;;;;;;;5094125;28;20642;-77
2023/02/09 09:07:29;;;;;;;36.10;26.43;;;;;;;;;;5094528;28;20289;-76
2023/02/09 09:09:56;;;;;;;39.80;29.73;;;;;;;;;;5093620;28;20293;-77
2023/02/09 09:12:23;;;;;;;40.50;28.97;;;;;;;;;;5093808;28;20293;-73
2023/02/09 09:14:51;;;;;;;41.77;30.43;;;;;;;;;;5094130;28;20206;-77
2023/02/09 09:17:18;;;;;;;42.87;31.50;;;;;;;;;;5093994;28;20310;-77
2023/02/09 09:19:45;;;;;;;41.73;31.53;;;;;;;;;;5094175;28;20286;-77
2023/02/09 09:22:13;;;;;;;43.77;31.43;;;;;;;;;;5093686;28;20627;-77
2023/02/09 09:24:41;;;;;;;42.33;32.50;;;;;;;;;;5093409;28;20289;-77
2023/02/09 09:27:08;;;;;;;46.00;33.03;;;;;;;;;;5093551;28;20265;-76
2023/02/09 09:29:35;;;;;;;45.00;33.97;;;;;;;;;;5093478;28;20682;-77
2023/02/09 09:32:03;;;;;;;40.30;30.87;;;;;;;;;;5093530;28;20771;-76
2023/02/09 09:34:30;;;;;;;39.03;30.37;;;;;;;;;;5093174;28;20293;-77
2023/02/09 09:36:57;;;;;;;40.97;29.93;;;;;;;;;;5093676;28;20226;-77
2023/02/09 09:39:26;;;;;;;40.77;30.70;;;;;;;;;;5093182;28;20302;-77
2023/02/09 09:41:56;;;;;;;41.33;29.00;;;;;;;;;;5093614;28;20670;-76
2023/02/09 09:44:28;;;;;;;39.43;28.00;;;;;;;;;;5093568;28;20198;-77
2023/02/09 09:46:59;;;;;;;42.00;29.93;;;;;;;;;;5092884;28;20649;-77
2023/02/09 09:49:28;;;;;;;40.27;30.40;;;;;;;;;;5093486;28;20195;-77
2023/02/09 09:51:56;;;;;;;41.90;31.53;;;;;;;;;;5093245;28;20293;-78
2023/02/09 09:54:25;;;;;;;42.00;31.03;;;;;;;;;;5092794;28;20281;-75
2023/02/09 09:56:54;;;;;;;43.37;32.13;;;;;;;;;;5093228;28;20313;-76
2023/02/09 09:59:22;;;;;;;40.77;31.80;;;;;;;;;;5092977;28;20202;-75
2023/02/09 10:01:51;;;;;;;44.13;30.80;;;;;;;;;;5093050;28;20222;-77
2023/02/09 10:04:18;;;;;;;44.77;30.47;;;;;;;;;;5093430;28;20194;-74
2023/02/09 10:06:47;;;;;;;39.93;29.93;;;;;;;;;;5092599;28;20292;-76
2023/02/09 10:09:22;;;;;;;40.87;30.37;;;;;;;;;;5092737;28;20297;-74
2023/02/09 10:11:53;;;;;;;40.17;30.07;;;;;;;;;;5092818;28;20289;-74
2023/02/09 10:14:21;;;;;;;41.70;30.27;;;;;;;;;;5092629;28;20290;-75
2023/02/09 10:16:48;;;;;;;41.30;29.80;;;;;;;;;;5092576;28;20285;-74
2023/02/09 10:19:20;;;;;;;39.23;30.10;;;;;;;;;;5093234;28;20243;-77
2023/02/09 10:21:48;;;;;;;43.57;29.37;;;;;;;;;;5092250;28;20285;-74
2023/02/09 10:24:16;;;;;;;44.77;30.77;;;;;;;;;;5092619;28;20209;-74
2023/02/09 10:26:43;;;;;;;41.20;29.30;;;;;;;;;;5092282;28;20685;-75
2023/02/09 10:29:23;;;;;;;38.87;29.67;;;;;;;;;;5092781;28;20218;-74
2023/02/09 10:31:54;;;;;;;40.60;29.93;;;;;;;;;;5092240;28;20289;-75
2023/02/09 10:34:23;;;;;;;38.07;29.03;;;;;;;;;;5092432;28;20709;-75
2023/02/09 10:36:51;;;;;;;39.97;29.87;;;;;;;;;;5092259;28;20217;-75
2023/02/09 10:39:20;;;;;;;39.90;29.83;;;;;;;;;;5092296;28;20294;-74
2023/02/09 10:41:49;;;;;;;41.50;29.23;;;;;;;;;;5092206;28;20288;-75
2023/02/09 10:44:18;;;;;;;42.50;30.10;;;;;;;;;;5092085;28;20667;-76
2023/02/09 10:46:47;;;;;;;39.20;29.47;;;;;;;;;;5092654;28;20282;-75
2023/02/09 10:49:30;;;;;;;40.03;30.57;;;;;;;;;;5092211;28;20190;-75
2023/02/09 10:52:06;;;;;;;41.00;29.53;;;;;;;;;;5091593;28;20256;-75
2023/02/09 10:54:33;;;;;;;39.03;30.00;;;;;;;;;;5092054;28;20225;-75
2023/02/09 10:57:00;;;;;;;38.07;28.20;;;;;;;;;;5092049;28;20229;-75
2023/02/09 10:59:27;;;;;;;38.53;29.10;;;;;;;;;;5092434;28;20199;-74
2023/02/09 11:01:57;;;;;;;38.03;28.83;;;;;;;;;;5091914;28;20194;-74
2023/02/09 11:04:25;;;;;;;39.33;28.77;;;;;;;;;;5090687;28;20753;-75
2023/02/09 11:06:54;;;;;;;39.30;28.93;;;;;;;;;;5092086;28;20288;-75
2023/02/09 11:09:24;;;;;;;38.00;27.00;;;;;;;;;;5091658;28;20194;-75
2023/02/09 11:11:52;;;;;;;37.93;27.53;;;;;;;;;;5091419;28;20290;-75
2023/02/09 11:14:20;;;;;;;33.87;25.57;;;;;;;;;;5091503;28;20281;-75
2023/02/09 11:16:50;;;;;;;31.67;24.77;;;;;;;;;;5091878;28;20297;-75
2023/02/09 11:19:27;;;;;;;30.70;24.87;;;;;;;;;;5091153;28;20202;-76
2023/02/09 11:21:59;;;;;;;33.03;23.87;;;;;;;;;;5091823;28;20289;-75
2023/02/09 11:24:38;;;;;;;31.20;23.80;;;;;;;;;;5091474;28;20237;-75
2023/02/09 11:27:07;;;;;;;30.57;24.77;;;;;;;;;;5091513;28;20317;-76
2023/02/09 11:29:37;;;;;;;32.20;25.27;;;;;;;;;;5091698;28;20287;-75
2023/02/09 11:32:16;;;;;;;33.33;25.13;;;;;;;;;;5091836;28;20289;-75
2023/02/09 11:34:54;;;;;;;34.27;25.33;;;;;;;;;;5091170;28;20285;-75
2023/02/09 11:37:28;;;;;;;34.47;25.03;;;;;;;;;;5091551;28;20213;-74
2023/02/09 11:39:59;;;;;;;33.00;25.63;;;;;;;;;;5091312;28;20648;-75
2023/02/09 11:42:46;;;;;;;31.23;25.83;;;;;;;;;;5091311;28;20205;-75
2023/02/09 11:45:16;;;;;;;31.03;24.47;;;;;;;;;;5090954;28;20232;-76
2023/02/09 11:47:49;;;;;;;30.43;24.30;;;;;;;;;;5091496;28;20241;-75
2023/02/09 11:50:20;;;;;;;30.43;23.37;;;;;;;;;;5091110;28;20285;-75
2023/02/09 11:52:52;;;;;;;31.87;25.13;;;;;;;;;;5091778;28;20278;-74
2023/02/09 11:55:26;;;;;;;32.73;24.03;;;;;;;;;;5091379;28;20281;-75
2023/02/09 11:57:56;;;;;;;32.83;26.10;;;;;;;;;;5091046;28;20776;-75
2023/02/09 12:00:26;;;;;;;32.90;25.77;;;;;;;;;;5091188;28;20233;-75
2023/02/09 12:02:58;;;;;;;33.80;25.57;;;;;;;;;;5090395;28;20774;-75
2023/02/09 12:05:27;;;;;;;30.03;24.30;;;;;;;;;;5091651;28;20297;-75
2023/02/09 12:08:07;;;;;;;32.30;25.87;;;;;;;;;;5091354;28;20277;-75
2023/02/09 12:10:38;;;;;;;31.00;24.13;;;;;;;;;;5091079;28;20281;-76
2023/02/09 12:13:09;;;;;;;29.27;23.67;;;;;;;;;;5090811;28;20289;-75
2023/02/09 12:15:39;;;;;;;27.37;22.57;;;;;;;;;;5091130;28;20285;-75
2023/02/09 12:18:08;;;;;;;31.93;23.93;;;;;;;;;;5094820;28;20237;-75
2023/02/09 12:20:50;;;;;;;28.93;23.60;;;;;;;;;;5094981;28;20285;-76
2023/02/09 12:23:19;;;;;;;26.13;21.17;;;;;;;;;;5094828;28;20558;-75
2023/02/09 12:25:49;;;;;;;24.47;20.03;;;;;;;;;;5095242;28;20297;-75
2023/02/09 12:28:18;;;;;;;26.10;21.47;;;;;;;;;;5094997;28;20286;-76
2023/02/09 12:30:58;;;;;;;27.97;22.53;;;;;;;;;;5094546;28;20229;-75
2023/02/09 12:33:29;;;;;;;27.23;22.43;;;;;;;;;;5094413;28;20726;-76
2023/02/09 12:36:02;;;;;;;27.87;22.30;;;;;;;;;;5094682;28;20191;-75
2023/02/09 12:38:44;;;;;;;28.67;22.87;;;;;;;;;;5094561;28;20247;-76
2023/02/09 12:41:12;;;;;;;27.00;22.53;;;;;;;;;;5094706;28;20256;-75
2023/02/09 12:43:40;;;;;;;25.37;20.63;;;;;;;;;;5094710;28;20682;-75
2023/02/09 12:46:21;;;;;;;25.60;19.87;;;;;;;;;;5094359;28;20600;-76
2023/02/09 12:49:03;;;;;;;28.13;21.30;;;;;;;;;;5094481;28;20277;-75
2023/02/09 12:51:41;;;;;;;24.47;18.93;;;;;;;;;;5094463;28;20191;-75
2023/02/09 12:54:27;;;;;;;22.03;18.77;;;;;;;;;;5094680;28;20245;-75
2023/02/09 12:56:54;;;;;;;26.97;21.43;;;;;;;;;;5094290;28;20233;-74
2023/02/09 12:59:23;;;;;;;27.60;22.30;;;;;;;;;;5094151;28;20321;-74
2023/02/09 13:02:26;;;;;;;31.07;23.40;;;;;;;;;;5093775;28;20285;-74
2023/02/09 13:04:58;;;;;;;28.60;22.07;;;;;;;;;;5094071;28;20718;-75
2023/02/09 13:07:30;;;;;;;26.70;21.97;;;;;;;;;;5094092;28;20194;-75
2023/02/09 13:09:59;;;;;;;31.63;23.43;;;;;;;;;;5093795;28;20285;-75
2023/02/09 13:12:31;;;;;;;30.77;22.57;;;;;;;;;;5094375;28;20289;-75
2023/02/09 13:14:58;;;;;;;29.17;22.03;;;;;;;;;;5093913;28;20746;-75
2023/02/09 13:17:28;;;;;;;30.40;22.10;;;;;;;;;;5093585;28;20252;-76
2023/02/09 13:20:13;;;;;;;30.53;21.10;;;;;;;;;;5094263;28;20290;-76
2023/02/09 13:22:48;;;;;;;27.13;21.30;;;;;;;;;;5093578;28;20289;-76
2023/02/09 13:25:18;;;;;;;26.33;20.10;;;;;;;;;;5093585;28;20233;-75
2023/02/09 13:27:46;;;;;;;24.27;19.83;;;;;;;;;;5092870;28;20888;-75
2023/02/09 13:30:14;;;;;;;25.63;19.73;;;;;;;;;;5093510;28;20277;-75
2023/02/09 13:32:49;;;;;;;24.90;18.10;;;;;;;;;;5093852;28;20650;-76
2023/02/09 13:35:19;;;;;;;19.90;16.73;;;;;;;;;;5093450;28;20221;-75
2023/02/09 13:37:49;;;;;;;21.27;16.50;;;;;;;;;;5093354;28;20289;-75
2023/02/09 13:40:18;;;;;;;19.17;16.27;;;;;;;;;;5093573;28;20290;-75
2023/02/09 13:42:53;;;;;;;20.87;16.00;;;;;;;;;;5093600;28;20268;-75
2023/02/09 13:45:22;;;;;;;24.67;16.33;;;;;;;;;;5093186;28;20289;-76
2023/02/09 13:47:50;;;;;;;22.07;16.87;;;;;;;;;;5093748;28;20201;-75
2023/02/09 13:50:17;;;;;;;21.73;17.03;;;;;;;;;;5093477;28;20289;-75
2023/02/09 13:52:45;;;;;;;24.27;17.47;;;;;;;;;;5093364;28;20285;-75
2023/02/09 13:55:16;;;;;;;21.63;17.57;;;;;;;;;;5092858;28;20289;-75
2023/02/09 13:57:44;;;;;;;23.20;17.73;;;;;;;;;;5093118;28;20252;-74
2023/02/09 14:00:17;;;;;;;23.40;17.30;;;;;;;;;;5092725;28;20274;-77
2023/02/09 14:02:46;;;;;;;21.53;17.00;;;;;;;;;;5093394;28;20293;-77
2023/02/09 14:05:21;;;;;;;21.83;17.63;;;;;;;;;;5093022;28;20285;-74
2023/02/09 14:07:48;;;;;;;23.53;18.37;;;;;;;;;;5093030;28;20263;-78
2023/02/09 14:10:18;;;;;;;23.23;17.30;;;;;;;;;;5092974;28;20294;-76
2023/02/09 14:12:51;;;;;;;21.90;17.87;;;;;;;;;;5092701;28;20198;-76
2023/02/09 14:18:18;;;;;;;24.90;18.97;;;;;;;;;;5092862;28;20688;-75
2023/02/09 14:20:58;;;;;;;24.50;19.17;;;;;;;;;;5092946;28;20288;-76
2023/02/09 14:23:31;;;;;;;24.80;19.30;;;;;;;;;;5092697;28;20294;-76
2023/02/09 14:26:07;;;;;;;28.57;23.37;;;;;;;;;;5093079;28;20249;-77
2023/02/09 14:28:35;;;;;;;25.93;19.83;;;;;;;;;;5091852;28;20301;-76
2023/02/09 14:31:02;;;;;;;23.50;20.07;;;;;;;;;;5092752;28;20202;-74
2023/02/09 14:33:30;;;;;;;24.87;19.40;;;;;;;;;;5092685;28;20190;-77
2023/02/09 14:36:00;;;;;;;26.73;20.93;;;;;;;;;;5092507;28;20202;-76
2023/02/09 14:38:38;;;;;;;24.93;20.47;;;;;;;;;;5091477;28;20226;-76
2023/02/09 14:41:23;;;;;;;26.30;21.07;;;;;;;;;;5092224;28;20206;-76
2023/02/09 14:43:58;;;;;;;26.33;19.93;;;;;;;;;;5091916;28;20221;-76